Rocky Springs, South Carolina
Current Conditions -  °F | °C
As of 12:35 AM on Wednesday 26 Nov 2014 (Local Time) from KAIK Reporting Station
Moderate Rain Moderate Rain  
Wind Chill: 45°   Ceiling: 1300
Heat Index: 48°   Visibility: 10mi
Dew Point: 48°   Wind: 7mph
Humidity: 100%   Direction: 310°NW
Pressure: 29.99"   Gusts: NA
Location:  33.6528°N, 81.4253°W
Report Text: KAIK 260535Z AUTO 31006KT 10SM RA SCT006 OVC013 09/09 A2999 RMK AO2 PNO
Loading
Personal Weather Stations






























Interactive Weather Map New forecast layout! Learn more

10-Day Weather Forecast

Advertisements
Track Severe Weather on mobile